Time;durP1;ratioP1;P1;durP2;ratioP2;P2;SDS_P1;SDS_P2;PMS_P1;PMS_P2;Temp;Humidity;BMP_temperature;BMP_pressure;BME280_temperature;BME280_humidity;BME280_pressure;Samples;Min_cycle;Max_cycle;Signal;HPM_P1;HPM_P2
2022/05/22 00:01:53;;;;;;;12.70;7.30;;;18.40;36.20;;;;;;5016124;28;20479;-71
2022/05/22 00:04:19;;;;;;;8.90;5.33;;;18.40;36.00;;;;;;5014347;28;20427;-71
2022/05/22 00:06:45;;;;;;;15.80;7.20;;;18.20;35.20;;;;;;5024735;28;20438;-71
2022/05/22 00:09:11;;;;;;;8.13;5.07;;;18.30;35.80;;;;;;5020414;28;20554;-71
2022/05/22 00:11:36;;;;;;;11.10;5.73;;;18.30;36.30;;;;;;5026431;28;20176;-71
2022/05/22 00:14:02;;;;;;;8.43;5.40;;;18.10;35.70;;;;;;5009941;28;20191;-71
2022/05/22 00:16:37;;;;;;;11.10;5.17;;;18.00;37.40;;;;;;5013070;28;20688;-71
2022/05/22 00:19:04;;;;;;;10.33;5.47;;;17.90;38.30;;;;;;5011484;28;20181;-71
2022/05/22 00:21:30;;;;;;;14.47;5.90;;;17.90;37.30;;;;;;5022220;28;20422;-71
2022/05/22 00:23:56;;;;;;;14.83;5.87;;;18.00;37.90;;;;;;5024997;28;20462;-71
2022/05/22 00:26:22;;;;;;;7.50;5.47;;;18.00;37.20;;;;;;5016546;28;20553;-71
2022/05/22 00:28:48;;;;;;;8.53;5.20;;;18.00;38.10;;;;;;5014690;28;20235;-71
2022/05/22 00:31:14;;;;;;;7.47;5.33;;;18.10;36.50;;;;;;5022144;28;20183;-71
2022/05/22 00:33:40;;;;;;;11.57;6.47;;;18.20;36.60;;;;;;5022031;28;20474;-71
2022/05/22 00:36:05;;;;;;;9.00;5.17;;;18.10;36.20;;;;;;5020775;28;20431;-71
2022/05/22 00:38:31;;;;;;;8.20;5.40;;;18.10;37.60;;;;;;5020808;28;20802;-71
2022/05/22 00:40:57;;;;;;;12.70;6.00;;;18.00;36.50;;;;;;5016894;28;20271;-71
2022/05/22 00:43:33;;;;;;;10.70;6.20;;;17.90;38.90;;;;;;5029069;28;20902;-72
2022/05/22 00:46:00;;;;;;;11.53;6.37;;;17.90;37.30;;;;;;5023214;28;20182;-71
2022/05/22 00:48:26;;;;;;;12.03;5.93;;;17.80;37.80;;;;;;5014002;28;20588;-71
2022/05/22 00:50:59;;;;;;;10.67;5.37;;;17.70;38.20;;;;;;5024695;28;20415;-71
2022/05/22 00:53:26;;;;;;;9.47;5.43;;;17.70;37.70;;;;;;5021178;28;20473;-71
2022/05/22 00:55:53;;;;;;;10.60;5.77;;;17.50;38.60;;;;;;5021208;28;20417;-71
2022/05/22 00:58:22;;;;;;;8.73;5.47;;;17.70;39.50;;;;;;5018139;28;20428;-71
2022/05/22 01:00:48;;;;;;;9.70;5.80;;;17.80;37.30;;;;;;5017408;28;20519;-71
2022/05/22 01:03:27;;;;;;;8.33;5.30;;;17.80;38.30;;;;;;5021305;28;20985;-71
2022/05/22 01:06:06;;;;;;;10.10;5.13;;;17.80;38.60;;;;;;5011684;28;20323;-71
2022/05/22 01:08:33;;;;;;;8.30;5.83;;;17.70;38.40;;;;;;5015325;28;20435;-71
2022/05/22 01:11:03;;;;;;;17.03;5.47;;;17.80;38.00;;;;;;5019235;28;20949;-71
2022/05/22 01:13:39;;;;;;;7.60;4.63;;;17.80;39.00;;;;;;5019802;28;20471;-71
2022/05/22 01:16:06;;;;;;;7.20;4.63;;;17.90;36.30;;;;;;5030423;28;20409;-71
2022/05/22 01:18:44;;;;;;;7.53;4.80;;;17.90;36.90;;;;;;5017059;28;20524;-71
2022/05/22 01:21:16;;;;;;;7.87;4.87;;;17.80;37.90;;;;;;5018991;28;20477;-71
2022/05/22 01:23:42;;;;;;;8.00;4.60;;;17.80;37.80;;;;;;5019268;28;20494;-71
2022/05/22 01:26:08;;;;;;;9.27;4.80;;;17.90;37.30;;;;;;5020901;28;20437;-71
2022/05/22 01:28:34;;;;;;;12.70;5.07;;;17.70;37.80;;;;;;5012152;28;20430;-71
2022/05/22 01:31:00;;;;;;;8.63;5.00;;;17.90;36.50;;;;;;5017381;28;21005;-71
2022/05/22 01:33:27;;;;;;;7.80;4.47;;;18.00;37.00;;;;;;5023095;28;20472;-71
2022/05/22 01:35:52;;;;;;;7.37;4.70;;;17.90;37.40;;;;;;5013301;28;20598;-71
2022/05/22 01:38:18;;;;;;;12.97;4.63;;;17.80;38.10;;;;;;5022833;28;20423;-71
2022/05/22 01:40:44;;;;;;;7.53;4.43;;;17.70;37.90;;;;;;5019910;28;20181;-71
2022/05/22 01:43:10;;;;;;;9.60;5.27;;;17.50;38.70;;;;;;5017870;28;20336;-71
2022/05/22 01:45:36;;;;;;;10.10;6.50;;;17.40;38.30;;;;;;5008446;28;20187;-71
2022/05/22 01:48:02;;;;;;;11.10;6.97;;;17.40;37.90;;;;;;5029492;28;20597;-71
2022/05/22 01:50:29;;;;;;;11.63;7.07;;;17.30;37.80;;;;;;5016506;28;20435;-71
2022/05/22 01:52:55;;;;;;;11.70;7.00;;;17.20;37.90;;;;;;5022702;28;20222;-71
2022/05/22 01:55:21;;;;;;;11.13;7.07;;;17.10;39.00;;;;;;5015364;28;20515;-71
2022/05/22 01:57:46;;;;;;;11.33;7.17;;;17.00;39.30;;;;;;5021704;28;20648;-71
2022/05/22 02:00:16;;;;;;;16.10;7.57;;;17.00;39.50;;;;;;5012279;28;20929;-71
2022/05/22 02:02:42;;;;;;;20.03;8.23;;;17.20;39.10;;;;;;5022748;28;20974;-71
2022/05/22 02:05:08;;;;;;;16.30;8.50;;;17.10;38.90;;;;;;5009855;28;20452;-71
2022/05/22 02:10:19;;;;;;;14.97;8.40;;;17.10;39.50;;;;;;5020744;28;20462;-71
2022/05/22 02:12:45;;;;;;;12.13;7.87;;;16.90;39.30;;;;;;5009680;28;20475;-71
2022/05/22 02:15:11;;;;;;;10.93;6.77;;;16.90;40.30;;;;;;5003868;28;20939;-71
2022/05/22 02:17:37;;;;;;;9.93;6.77;;;16.80;40.20;;;;;;5014595;28;20186;-71
2022/05/22 02:20:03;;;;;;;9.07;6.23;;;16.90;40.00;;;;;;5004074;28;20441;-71
2022/05/22 02:22:29;;;;;;;9.73;6.60;;;16.90;39.90;;;;;;5013956;28;20284;-71
2022/05/22 02:24:55;;;;;;;10.83;7.10;;;16.80;39.50;;;;;;5014414;28;20437;-71
2022/05/22 02:27:21;;;;;;;7.93;5.70;;;16.80;39.40;;;;;;5017897;28;20197;-71
2022/05/22 02:29:47;;;;;;;13.97;6.57;;;16.60;40.20;;;;;;5018335;28;20193;-71
2022/05/22 02:32:13;;;;;;;9.40;5.90;;;16.50;40.30;;;;;;5020759;28;20482;-71
2022/05/22 02:34:38;;;;;;;14.50;6.83;;;16.50;40.90;;;;;;5022979;28;20886;-71
2022/05/22 02:37:05;;;;;;;12.40;6.80;;;16.40;41.30;;;;;;5014626;28;20622;-71
2022/05/22 02:39:31;;;;;;;12.80;7.47;;;16.50;41.00;;;;;;5009045;28;20206;-71
2022/05/22 02:42:04;;;;;;;11.60;6.97;;;16.50;41.90;;;;;;5002423;28;20439;-71
2022/05/22 02:44:30;;;;;;;12.90;6.37;;;16.20;41.70;;;;;;5018302;28;20431;-71
2022/05/22 02:46:56;;;;;;;12.60;6.80;;;16.20;42.20;;;;;;5020418;28;20476;-71
2022/05/22 02:49:21;;;;;;;13.53;6.57;;;16.30;42.50;;;;;;5015969;28;20660;-68
2022/05/22 02:51:47;;;;;;;9.03;6.50;;;16.40;42.20;;;;;;5019884;28;20269;-68
2022/05/22 02:54:12;;;;;;;14.23;6.97;;;16.40;42.10;;;;;;5018412;28;20675;-68
2022/05/22 02:56:39;;;;;;;9.70;6.57;;;16.50;41.80;;;;;;5020100;28;20276;-68
2022/05/22 02:59:05;;;;;;;11.90;6.43;;;16.40;41.20;;;;;;5016849;28;20201;-68
2022/05/22 03:01:31;;;;;;;11.37;6.40;;;16.50;41.70;;;;;;5019793;28;20435;-68
2022/05/22 03:03:57;;;;;;;14.00;6.67;;;16.30;41.90;;;;;;5022400;28;20288;-68
2022/05/22 03:06:40;;;;;;;13.30;6.73;;;15.80;42.90;;;;;;5023073;28;20194;-68
2022/05/22 03:09:15;;;;;;;15.00;5.97;;;15.60;44.70;;;;;;5012008;28;20267;-68
2022/05/22 03:11:42;;;;;;;11.10;6.30;;;15.70;44.20;;;;;;5015657;28;21041;-68
2022/05/22 03:14:08;;;;;;;12.57;5.90;;;15.60;44.10;;;;;;5022739;28;20457;-68
2022/05/22 03:16:34;;;;;;;15.43;6.60;;;15.60;45.00;;;;;;5021051;28;20982;-68
2022/05/22 03:19:00;;;;;;;9.70;6.03;;;15.90;43.30;;;;;;5025559;28;20427;-68
2022/05/22 03:21:29;;;;;;;9.90;5.93;;;16.00;42.90;;;;;;5016853;28;20192;-69
2022/05/22 03:23:55;;;;;;;8.97;6.00;;;16.10;43.40;;;;;;5024875;28;20466;-68
2022/05/22 03:26:21;;;;;;;8.40;5.70;;;16.20;41.90;;;;;;5018196;28;20890;-68
2022/05/22 03:28:47;;;;;;;11.23;5.70;;;16.30;41.80;;;;;;5016923;28;20537;-68
2022/05/22 03:31:12;;;;;;;17.07;5.90;;;16.70;40.20;;;;;;5014730;28;20444;-68
2022/05/22 03:33:38;;;;;;;13.60;6.07;;;16.80;40.10;;;;;;5021923;28;20218;-68
2022/05/22 03:36:05;;;;;;;7.67;5.67;;;16.80;40.50;;;;;;5022749;28;20212;-68
2022/05/22 03:38:31;;;;;;;8.97;5.93;;;16.50;41.60;;;;;;5025142;28;20177;-68
2022/05/22 03:40:58;;;;;;;15.10;5.60;;;16.20;41.60;;;;;;5013860;28;20440;-68
2022/05/22 03:43:23;;;;;;;9.27;6.13;;;16.20;41.70;;;;;;5021971;28;20845;-68
2022/05/22 03:45:49;;;;;;;8.03;5.60;;;16.20;41.20;;;;;;5024508;28;20442;-69
2022/05/22 03:48:15;;;;;;;8.87;5.67;;;16.40;40.80;;;;;;5017651;28;20196;-68
2022/05/22 03:50:40;;;;;;;10.60;6.60;;;16.50;41.70;;;;;;5030058;28;20185;-68
2022/05/22 03:53:06;;;;;;;10.20;6.00;;;16.40;41.80;;;;;;5010616;28;20232;-68
2022/05/22 03:55:32;;;;;;;7.93;5.80;;;16.30;42.40;;;;;;5010018;28;20258;-69
2022/05/22 03:57:58;;;;;;;8.40;5.83;;;16.40;41.30;;;;;;5014294;28;20185;-68
2022/05/22 04:00:24;;;;;;;7.93;5.43;;;16.50;41.10;;;;;;5024835;28;20183;-69
2022/05/22 04:02:51;;;;;;;7.20;5.00;;;16.70;39.70;;;;;;5008887;28;20472;-68
2022/05/22 04:05:17;;;;;;;9.47;5.50;;;16.80;38.70;;;;;;5027896;28;20493;-68
2022/05/22 04:07:46;;;;;;;8.27;5.60;;;16.50;41.30;;;;;;5018951;28;20454;-69
2022/05/22 04:10:14;;;;;;;12.90;5.93;;;16.40;41.70;;;;;;5023946;28;20435;-70
2022/05/22 04:12:42;;;;;;;13.90;5.47;;;16.20;42.30;;;;;;5012740;28;20570;-71
2022/05/22 04:15:10;;;;;;;11.00;5.63;;;16.20;42.30;;;;;;5011973;28;20849;-69
2022/05/22 04:17:36;;;;;;;8.60;5.97;;;16.20;42.80;;;;;;5017298;28;20437;-69
2022/05/22 04:20:01;;;;;;;16.40;5.60;;;16.20;42.30;;;;;;5020035;28;20820;-69
2022/05/22 04:22:27;;;;;;;8.07;5.37;;;16.20;43.00;;;;;;5029236;28;20217;-70
2022/05/22 04:25:11;;;;;;;10.50;6.13;;;16.30;42.80;;;;;;4994643;28;20197;-70
2022/05/22 04:27:42;;;;;;;13.47;5.97;;;16.40;42.10;;;;;;5013662;28;20189;-70
2022/05/22 04:30:17;;;;;;;10.57;5.93;;;16.30;42.90;;;;;;5025134;28;20438;-70
2022/05/22 04:32:47;;;;;;;10.93;5.70;;;16.30;43.20;;;;;;5018034;28;21006;-70
2022/05/22 04:35:13;;;;;;;10.43;6.33;;;16.30;42.20;;;;;;5020527;28;20443;-70
2022/05/22 04:37:39;;;;;;;11.33;6.00;;;15.60;43.40;;;;;;5013424;28;20487;-70
2022/05/22 04:40:06;;;;;;;13.33;7.37;;;15.40;45.70;;;;;;5014733;28;20524;-70
2022/05/22 04:42:35;;;;;;;11.47;8.73;;;15.10;46.30;;;;;;5023177;28;20466;-69
2022/05/22 04:45:03;;;;;;;11.23;7.20;;;15.20;46.40;;;;;;5010803;28;20450;-69
2022/05/22 04:47:28;;;;;;;14.70;7.33;;;14.80;47.80;;;;;;5011300;28;20430;-69
2022/05/22 04:49:55;;;;;;;13.43;7.20;;;15.20;46.60;;;;;;5022246;28;20438;-70
2022/05/22 04:52:21;;;;;;;9.47;5.93;;;15.40;45.70;;;;;;5012979;28;20463;-70
2022/05/22 04:54:47;;;;;;;9.87;5.80;;;15.90;42.80;;;;;;5008182;28;20412;-70
2022/05/22 04:57:14;;;;;;;9.20;5.60;;;16.10;41.70;;;;;;5006168;28;20436;-70
2022/05/22 04:59:39;;;;;;;7.50;5.50;;;16.30;41.40;;;;;;5022357;28;20459;-70
2022/05/22 05:02:05;;;;;;;9.73;6.00;;;16.20;42.90;;;;;;5022184;28;21236;-70
2022/05/22 05:04:31;;;;;;;12.83;5.63;;;16.50;41.90;;;;;;5019458;28;20189;-70
2022/05/22 05:06:57;;;;;;;10.10;5.73;;;16.30;42.20;;;;;;5026623;28;20186;-70
2022/05/22 05:09:23;;;;;;;12.40;6.43;;;16.20;43.20;;;;;;5015557;28;20907;-70
2022/05/22 05:11:48;;;;;;;10.93;5.50;;;16.00;42.30;;;;;;5025228;28;20435;-69
2022/05/22 05:14:14;;;;;;;10.23;6.27;;;15.40;45.70;;;;;;5023863;28;20169;-70
2022/05/22 05:16:40;;;;;;;9.40;5.50;;;16.30;45.80;;;;;;5015638;28;20176;-70
2022/05/22 05:19:05;;;;;;;16.77;8.20;;;16.10;42.10;;;;;;5014612;28;20657;-70
2022/05/22 05:21:31;;;;;;;18.80;7.67;;;15.50;44.40;;;;;;5027437;28;20186;-70
2022/05/22 05:23:56;;;;;;;14.10;6.77;;;15.10;46.90;;;;;;5023559;28;20205;-70
2022/05/22 05:26:23;;;;;;;12.70;5.67;;;15.10;48.20;;;;;;5011082;28;20200;-70
2022/05/22 05:28:49;;;;;;;12.20;5.50;;;15.60;45.90;;;;;;5007999;28;20222;-70
2022/05/22 05:31:15;;;;;;;8.20;5.03;;;15.60;45.30;;;;;;5010841;28;20435;-70
2022/05/22 05:33:41;;;;;;;7.80;5.27;;;15.50;46.90;;;;;;5017661;28;21062;-70
2022/05/22 05:36:09;;;;;;;11.63;5.73;;;15.10;47.90;;;;;;5019257;28;20438;-70
2022/05/22 05:38:35;;;;;;;7.90;5.33;;;15.00;49.00;;;;;;5018130;28;20757;-69
2022/05/22 05:41:01;;;;;;;10.83;5.33;;;15.10;48.30;;;;;;5010891;28;20445;-70
2022/05/22 05:43:27;;;;;;;11.53;6.20;;;15.10;48.60;;;;;;5019179;28;20212;-70
2022/05/22 05:45:52;;;;;;;17.93;7.20;;;15.00;49.50;;;;;;5018769;28;20809;-70
2022/05/22 05:48:18;;;;;;;12.20;6.83;;;15.30;49.40;;;;;;5011665;28;20193;-70
2022/05/22 05:50:44;;;;;;;14.37;7.20;;;15.50;48.80;;;;;;5016946;28;20188;-70
2022/05/22 05:53:09;;;;;;;14.20;6.70;;;15.70;47.30;;;;;;5029910;28;20200;-70
2022/05/22 05:55:35;;;;;;;16.00;6.30;;;15.50;48.00;;;;;;5018378;28;20181;-70
2022/05/22 05:58:03;;;;;;;11.93;6.23;;;15.20;50.00;;;;;;5019452;28;20184;-70
2022/05/22 06:00:29;;;;;;;9.10;6.10;;;15.70;47.90;;;;;;5013798;28;20234;-70
2022/05/22 06:02:54;;;;;;;11.60;6.67;;;16.10;47.20;;;;;;5015273;28;20557;-70
2022/05/22 06:05:21;;;;;;;13.17;6.47;;;16.50;45.60;;;;;;5020270;28;20184;-70
2022/05/22 06:07:51;;;;;;;9.47;5.77;;;16.30;43.90;;;;;;5014125;28;20176;-70
2022/05/22 06:10:18;;;;;;;12.50;5.83;;;16.20;46.40;;;;;;5017773;28;20453;-70
2022/05/22 06:12:46;;;;;;;6.60;5.00;;;16.80;42.90;;;;;;5015382;28;20474;-70
2022/05/22 06:15:13;;;;;;;12.03;7.10;;;16.60;43.50;;;;;;5014306;28;20447;-70
2022/05/22 06:17:46;;;;;;;9.80;6.50;;;16.20;45.50;;;;;;5016882;28;20441;-71
2022/05/22 06:20:15;;;;;;;10.93;6.90;;;16.40;45.40;;;;;;5011269;28;20488;-71
2022/05/22 06:22:42;;;;;;;11.90;7.37;;;16.80;42.80;;;;;;5016155;28;20472;-70
2022/05/22 06:25:10;;;;;;;21.20;8.07;;;16.70;44.40;;;;;;5004632;28;20526;-70
2022/05/22 06:27:35;;;;;;;24.90;9.73;;;16.80;42.90;;;;;;5004330;28;20430;-70
2022/05/22 06:30:01;;;;;;;13.50;7.00;;;16.40;45.10;;;;;;5004022;28;20778;-69
2022/05/22 06:32:27;;;;;;;10.43;6.77;;;16.40;46.40;;;;;;5007250;28;20318;-70
2022/05/22 06:34:52;;;;;;;10.03;7.00;;;16.80;44.60;;;;;;5005277;28;20954;-70
2022/05/22 06:37:21;;;;;;;11.33;7.07;;;16.80;44.00;;;;;;4997196;28;20172;-70
2022/05/22 06:39:50;;;;;;;15.70;8.60;;;16.80;44.80;;;;;;5006365;28;20185;-69
2022/05/22 06:42:19;;;;;;;13.93;8.30;;;16.50;45.60;;;;;;5008681;28;20457;-70
2022/05/22 06:44:54;;;;;;;13.50;7.40;;;16.80;46.10;;;;;;5008036;28;20889;-69
2022/05/22 06:47:20;;;;;;;9.83;6.50;;;16.90;45.20;;;;;;5020889;28;20505;-69
2022/05/22 06:49:45;;;;;;;9.70;6.30;;;17.70;42.80;;;;;;5014020;28;20438;-70
2022/05/22 06:52:11;;;;;;;10.43;5.90;;;18.30;41.10;;;;;;5011452;28;20209;-70
2022/05/22 06:54:36;;;;;;;13.00;6.77;;;17.50;39.90;;;;;;5018394;28;20172;-70
2022/05/22 06:57:02;;;;;;;7.87;6.00;;;17.10;40.40;;;;;;5004589;28;20177;-70
2022/05/22 06:59:28;;;;;;;13.47;5.70;;;17.30;42.00;;;;;;4995281;28;20186;-70
2022/05/22 07:01:53;;;;;;;10.27;6.20;;;17.70;41.90;;;;;;5007040;28;20182;-70
2022/05/22 07:04:22;;;;;;;11.37;5.93;;;18.00;39.20;;;;;;5015239;28;20177;-70
2022/05/22 07:06:48;;;;;;;7.70;5.10;;;18.20;39.40;;;;;;5015885;28;20228;-70
2022/05/22 07:09:17;;;;;;;8.30;5.47;;;17.90;37.50;;;;;;5009117;28;20416;-70
2022/05/22 07:11:45;;;;;;;9.83;5.43;;;17.70;39.50;;;;;;5005280;28;20428;-70
2022/05/22 07:14:14;;;;;;;8.10;5.50;;;18.30;38.10;;;;;;4998690;28;20455;-70
2022/05/22 07:16:40;;;;;;;9.90;5.60;;;17.60;40.40;;;;;;5007469;28;20441;-70
2022/05/22 07:19:07;;;;;;;11.80;5.37;;;17.70;39.60;;;;;;5012309;28;20462;-70
2022/05/22 07:21:33;;;;;;;9.13;5.30;;;17.70;39.50;;;;;;5013865;28;20446;-72
2022/05/22 07:24:01;;;;;;;8.53;5.57;;;18.00;39.80;;;;;;5018225;28;20460;-71
2022/05/22 07:26:28;;;;;;;13.53;5.00;;;18.20;39.10;;;;;;5013436;28;20726;-71
2022/05/22 07:28:54;;;;;;;8.77;5.20;;;18.30;40.10;;;;;;5030975;28;20412;-71
2022/05/22 07:31:25;;;;;;;8.80;4.83;;;18.30;40.10;;;;;;5007543;28;20438;-72
2022/05/22 07:33:51;;;;;;;16.33;5.50;;;18.00;40.80;;;;;;4995926;28;20474;-72
2022/05/22 07:36:18;;;;;;;9.73;4.63;;;18.40;40.20;;;;;;4995158;28;20445;-72
2022/05/22 07:38:45;;;;;;;15.17;5.50;;;18.50;40.10;;;;;;4998376;28;20854;-77
2022/05/22 07:41:14;;;;;;;14.63;5.13;;;19.20;38.00;;;;;;4991057;28;20432;-71
2022/05/22 07:43:40;;;;;;;9.70;5.20;;;19.70;35.80;;;;;;4999826;28;20559;-71
2022/05/22 07:46:07;;;;;;;14.47;5.60;;;19.50;35.40;;;;;;5006275;28;20476;-72
2022/05/22 07:48:33;;;;;;;6.33;4.90;;;19.80;34.80;;;;;;5006043;28;20522;-72
2022/05/22 07:51:02;;;;;;;9.53;4.70;;;20.40;35.20;;;;;;5005394;28;20445;-72
2022/05/22 07:53:29;;;;;;;8.13;5.00;;;20.90;32.10;;;;;;5004010;28;20465;-71
2022/05/22 07:55:56;;;;;;;8.23;5.23;;;20.60;32.50;;;;;;5014506;28;20428;-72
2022/05/22 07:58:23;;;;;;;8.53;5.10;;;20.10;32.60;;;;;;4995091;28;20452;-72
2022/05/22 08:00:53;;;;;;;7.67;4.87;;;19.70;34.40;;;;;;4994656;28;20432;-71
2022/05/22 08:03:20;;;;;;;7.47;4.57;;;19.60;34.70;;;;;;5001506;28;20449;-72
2022/05/22 08:05:46;;;;;;;9.20;5.17;;;19.60;35.30;;;;;;5013475;28;20494;-72
2022/05/22 08:08:11;;;;;;;6.80;4.43;;;19.60;35.40;;;;;;5013343;28;20432;-72
2022/05/22 08:10:39;;;;;;;8.30;4.70;;;19.80;35.20;;;;;;4996890;28;20786;-72
2022/05/22 08:13:05;;;;;;;15.90;5.43;;;20.50;34.50;;;;;;5001578;28;20576;-72
2022/05/22 08:15:34;;;;;;;6.80;4.87;;;21.30;33.10;;;;;;4994227;28;20423;-72
2022/05/22 08:18:00;;;;;;;7.83;5.10;;;21.70;32.70;;;;;;4993817;28;20428;-72
2022/05/22 08:20:27;;;;;;;8.90;5.30;;;22.10;30.40;;;;;;5001027;28;20497;-72
2022/05/22 08:22:56;;;;;;;10.90;4.90;;;22.40;29.20;;;;;;4993665;28;20845;-72
2022/05/22 08:25:24;;;;;;;8.87;5.93;;;21.90;30.00;;;;;;5005502;28;20982;-72
2022/05/22 08:27:51;;;;;;;8.40;5.23;;;21.60;29.50;;;;;;5001645;28;20431;-72
2022/05/22 08:30:17;;;;;;;9.97;4.83;;;21.30;29.90;;;;;;5002133;28;20437;-72
2022/05/22 08:32:44;;;;;;;7.20;4.83;;;21.90;30.30;;;;;;4993252;28;20548;-72
2022/05/22 08:35:12;;;;;;;10.17;5.00;;;21.50;29.80;;;;;;5013131;28;20426;-72
2022/05/22 08:37:38;;;;;;;8.60;5.00;;;20.70;31.10;;;;;;4997454;28;21016;-72
2022/05/22 08:40:05;;;;;;;8.67;4.90;;;20.80;32.30;;;;;;5006156;28;20458;-72
2022/05/22 08:42:50;;;;;;;8.80;4.70;;;21.30;30.90;;;;;;4993319;28;20632;-72
2022/05/22 08:45:24;;;;;;;11.60;4.87;;;21.80;30.40;;;;;;4993447;28;20472;-72
2022/05/22 08:48:23;;;;;;;5.90;4.50;;;22.20;30.30;;;;;;5001684;28;20518;-72
2022/05/22 08:50:49;;;;;;;6.27;4.30;;;22.50;28.60;;;;;;4996478;28;20943;-72
2022/05/22 08:53:24;;;;;;;8.93;4.77;;;22.80;29.80;;;;;;5004616;28;20457;-72
2022/05/22 08:58:56;;;;;;;8.63;4.50;;;22.70;27.90;;;;;;4975385;28;20424;-72
2022/05/22 09:01:35;;;;;;;8.63;5.00;;;23.00;27.40;;;;;;4997818;28;20497;-72
2022/05/22 09:04:07;;;;;;;12.80;4.90;;;23.00;28.10;;;;;;4995161;28;21019;-72
2022/05/22 09:06:55;;;;;;;9.27;4.57;;;22.90;28.00;;;;;;4992416;28;20844;-72
2022/05/22 09:09:22;;;;;;;9.90;4.60;;;22.70;27.90;;;;;;5004313;28;20514;-72
2022/05/22 09:11:51;;;;;;;7.97;4.37;;;22.50;28.20;;;;;;5004245;28;20961;-72
2022/05/22 09:15:03;;;;;;;8.20;3.90;;;22.50;28.30;;;;;;4993482;28;20466;-72
2022/05/22 09:17:34;;;;;;;6.20;4.17;;;23.30;28.30;;;;;;4953595;28;20465;-70
2022/05/22 09:20:13;;;;;;;7.03;3.87;;;23.60;26.30;;;;;;4989370;28;20432;-70
2022/05/22 09:23:25;;;;;;;7.60;4.20;;;23.80;26.20;;;;;;4996686;28;20466;-70
2022/05/22 09:26:07;;;;;;;9.20;4.37;;;23.70;26.80;;;;;;4979491;28;20448;-70
2022/05/22 09:28:53;;;;;;;7.97;4.13;;;23.20;27.80;;;;;;4993407;28;20429;-70
2022/05/22 09:31:33;;;;;;;8.27;4.40;;;23.50;28.70;;;;;;5000478;28;20428;-70
2022/05/22 09:34:27;;;;;;;6.30;3.43;;;24.10;26.60;;;;;;4993066;28;20498;-70
2022/05/22 09:37:04;;;;;;;13.10;4.40;;;23.70;26.20;;;;;;4965177;28;20804;-70
2022/05/22 09:40:14;;;;;;;4.70;3.70;;;22.80;27.20;;;;;;4999569;28;20433;-70
2022/05/22 09:42:54;;;;;;;10.20;3.80;;;22.90;26.60;;;;;;4939427;29;20553;-70
2022/05/22 09:45:31;;;;;;;5.70;3.63;;;23.30;25.10;;;;;;4940364;29;20431;-70
2022/05/22 09:48:18;;;;;;;11.30;4.10;;;23.80;24.50;;;;;;4946916;29;20516;-70
2022/05/22 09:50:55;;;;;;;7.47;3.83;;;24.20;24.00;;;;;;4932192;29;21002;-70
2022/05/22 09:53:44;;;;;;;7.30;4.03;;;24.60;25.60;;;;;;4932725;29;20467;-70
2022/05/22 09:56:28;;;;;;;7.33;3.80;;;25.20;23.10;;;;;;4936144;29;20423;-71
2022/05/22 09:59:02;;;;;;;8.60;4.30;;;25.40;23.20;;;;;;4942653;29;20430;-71
2022/05/22 10:01:33;;;;;;;6.70;3.63;;;25.20;22.90;;;;;;4934062;29;20423;-70
2022/05/22 10:04:29;;;;;;;7.60;3.30;;;24.90;23.60;;;;;;4931607;29;20450;-70
2022/05/22 10:07:21;;;;;;;5.90;3.20;;;24.00;24.00;;;;;;4931605;29;20419;-70
2022/05/22 10:09:51;;;;;;;5.60;2.77;;;23.70;22.90;;;;;;4931704;29;20431;-70
2022/05/22 10:12:49;;;;;;;5.20;2.97;;;23.20;22.30;;;;;;4937816;29;20458;-70
2022/05/22 10:15:41;;;;;;;3.63;2.10;;;22.30;22.90;;;;;;4874615;29;20525;-70
2022/05/22 10:18:18;;;;;;;3.83;2.70;;;23.80;22.20;;;;;;4908960;29;20422;-70
2022/05/22 10:21:03;;;;;;;7.70;2.73;;;24.70;23.10;;;;;;4950165;29;20489;-70
2022/05/22 10:23:56;;;;;;;4.53;2.33;;;24.10;21.00;;;;;;4950691;28;20861;-71
2022/05/22 10:26:55;;;;;;;4.03;2.53;;;23.70;22.20;;;;;;4950669;29;20434;-70
2022/05/22 10:29:47;;;;;;;4.87;2.70;;;24.40;21.20;;;;;;4950583;29;20456;-70
2022/05/22 10:32:28;;;;;;;4.13;2.60;;;25.10;20.50;;;;;;4950161;29;20561;-70
2022/05/22 10:35:33;;;;;;;8.03;2.93;;;25.30;20.20;;;;;;4950373;29;20544;-70
2022/05/22 10:37:59;;;;;;;5.30;2.50;;;25.10;20.10;;;;;;4930738;29;20530;-70
2022/05/22 10:40:25;;;;;;;6.63;2.60;;;25.30;19.30;;;;;;4934661;29;20857;-70
2022/05/22 10:42:56;;;;;;;3.70;2.43;;;26.00;22.50;;;;;;4950235;28;20225;-70
2022/05/22 10:45:24;;;;;;;4.77;2.63;;;26.50;19.50;;;;;;4950577;29;20435;-71
2022/05/22 10:47:51;;;;;;;3.50;2.20;;;26.60;18.40;;;;;;4950299;29;20445;-71
2022/05/22 10:50:20;;;;;;;4.07;2.30;;;26.90;20.00;;;;;;4961691;28;20432;-70
2022/05/22 10:52:48;;;;;;;3.87;2.30;;;26.30;18.80;;;;;;5000138;28;20571;-71
2022/05/22 10:55:45;;;;;;;3.47;2.20;;;25.20;18.00;;;;;;5003143;28;20432;-70
2022/05/22 10:58:26;;;;;;;4.83;2.60;;;24.90;18.00;;;;;;5010485;28;20997;-70
2022/05/22 11:01:03;;;;;;;4.80;2.40;;;24.30;19.10;;;;;;5002134;28;20944;-70
2022/05/22 11:03:32;;;;;;;6.00;2.20;;;24.60;17.90;;;;;;4991836;28;20522;-70
2022/05/22 11:06:01;;;;;;;6.60;2.23;;;26.00;18.00;;;;;;4991949;28;20439;-70
2022/05/22 11:08:32;;;;;;;3.10;2.33;;;27.20;16.10;;;;;;4999843;28;20656;-70
2022/05/22 11:11:30;;;;;;;7.93;2.50;;;27.50;16.50;;;;;;4991316;28;20986;-70
2022/05/22 11:14:14;;;;;;;4.30;2.47;;;27.10;14.30;;;;;;4990182;28;20555;-70
2022/05/22 11:16:41;;;;;;;11.13;2.50;;;26.00;15.90;;;;;;4999192;28;20936;-70
2022/05/22 11:19:15;;;;;;;3.97;2.40;;;26.10;17.00;;;;;;4990827;28;20440;-70
2022/05/22 11:22:06;;;;;;;3.70;2.30;;;26.30;16.60;;;;;;4990891;28;20464;-70
2022/05/22 11:25:10;;;;;;;4.17;2.33;;;26.10;16.80;;;;;;4991185;28;20443;-70
2022/05/22 11:28:06;;;;;;;2.83;1.90;;;28.00;17.50;;;;;;4978908;28;20927;-71
2022/05/22 11:30:55;;;;;;;4.73;2.20;;;29.50;13.00;;;;;;5001427;28;20409;-70
2022/05/22 11:33:30;;;;;;;3.87;2.40;;;31.40;13.00;;;;;;4994939;28;20468;-71
2022/05/22 11:35:56;;;;;;;3.17;2.10;;;30.70;10.80;;;;;;4996141;28;20805;-71
2022/05/22 11:38:58;;;;;;;5.10;1.80;;;30.90;11.90;;;;;;5002366;28;20487;-71
2022/05/22 11:42:02;;;;;;;2.90;1.90;;;31.70;9.00;;;;;;4995076;28;20186;-71
2022/05/22 11:44:31;;;;;;;7.57;2.27;;;29.30;11.40;;;;;;4962087;28;20435;-71
2022/05/22 11:47:08;;;;;;;2.30;1.80;;;30.00;10.50;;;;;;5000582;28;20427;-70
2022/05/22 11:49:59;;;;;;;3.87;1.80;;;31.30;11.90;;;;;;5003360;28;20506;-70
2022/05/22 11:52:55;;;;;;;4.57;2.00;;;30.50;9.50;;;;;;5009744;28;20467;-70
2022/05/22 11:55:26;;;;;;;4.00;1.87;;;28.40;11.10;;;;;;4992079;28;20437;-70
2022/05/22 11:58:07;;;;;;;3.07;1.97;;;29.80;10.20;;;;;;5005576;28;20479;-71
2022/05/22 12:00:41;;;;;;;2.90;1.97;;;31.40;11.00;;;;;;4997323;28;20413;-71
2022/05/22 12:03:34;;;;;;;3.83;2.20;;;31.50;11.40;;;;;;5007480;28;20448;-70
2022/05/22 12:06:44;;;;;;;2.60;1.80;;;32.60;7.60;;;;;;5002172;28;20803;-70
2022/05/22 12:09:54;;;;;;;3.70;1.80;;;32.70;8.90;;;;;;5002283;28;20424;-72
2022/05/22 12:12:53;;;;;;;4.37;2.00;;;32.00;7.50;;;;;;4968258;28;21002;-73
2022/05/22 12:15:24;;;;;;;4.77;2.10;;;29.70;9.60;;;;;;5001745;28;20942;-70
2022/05/22 12:17:58;;;;;;;5.77;2.20;;;29.70;10.00;;;;;;4994258;28;20421;-70
2022/05/22 12:20:48;;;;;;;3.57;2.00;;;29.20;11.00;;;;;;4994435;28;20416;-70
2022/05/22 12:23:25;;;;;;;3.07;1.90;;;30.50;8.40;;;;;;5001547;28;20551;-70
2022/05/22 12:25:58;;;;;;;2.80;2.00;;;30.70;9.00;;;;;;4993439;28;20438;-70
2022/05/22 12:28:43;;;;;;;5.10;2.00;;;29.90;6.40;;;;;;4994017;28;20433;-71
2022/05/22 12:31:29;;;;;;;2.40;1.77;;;29.60;6.00;;;;;;4994086;28;20452;-70
2022/05/22 12:33:59;;;;;;;3.43;1.97;;;30.20;8.00;;;;;;4993308;28;20534;-71
2022/05/22 12:36:28;;;;;;;4.10;1.90;;;30.80;5.60;;;;;;4999951;28;20424;-71
2022/05/22 12:39:01;;;;;;;3.80;1.90;;;30.70;5.20;;;;;;5002447;28;20438;-70
2022/05/22 12:41:42;;;;;;;2.90;2.00;;;30.80;3.20;;;;;;5007776;28;20479;-70
2022/05/22 12:44:08;;;;;;;3.00;1.77;;;30.10;4.20;;;;;;5000776;28;20861;-70
2022/05/22 12:46:34;;;;;;;2.90;1.90;;;30.10;4.20;;;;;;5001167;28;20425;-70
2022/05/22 12:49:06;;;;;;;9.10;2.03;;;30.40;4.40;;;;;;4993227;28;20189;-71
2022/05/22 12:51:35;;;;;;;3.17;1.90;;;29.70;6.40;;;;;;5000966;28;20516;-70
2022/05/22 12:54:12;;;;;;;3.80;2.03;;;30.10;4.20;;;;;;4994590;28;20468;-72
2022/05/22 12:56:40;;;;;;;4.93;1.90;;;30.30;5.20;;;;;;5012709;28;20489;-72
2022/05/22 12:59:35;;;;;;;4.77;2.00;;;30.70;2.50;;;;;;4993768;28;20433;-72
2022/05/22 13:02:02;;;;;;;3.13;2.10;;;29.40;5.30;;;;;;4951868;28;20493;-72
2022/05/22 13:04:34;;;;;;;4.80;2.40;;;30.30;6.60;;;;;;4952002;28;20427;-72
2022/05/22 13:07:11;;;;;;;3.43;1.90;;;31.00;9.60;;;;;;4953031;28;20522;-72
2022/05/22 13:09:44;;;;;;;3.57;2.00;;;30.50;6.60;;;;;;4952187;28;20949;-72
2022/05/22 13:12:13;;;;;;;13.23;2.20;;;30.90;7.70;;;;;;4953482;28;21300;-72